createdAt,value
2023-03-07T00:00:47.195Z,23.27
2023-03-07T00:02:20.233Z,22.70
2023-03-07T00:03:52.547Z,22.83
2023-03-07T00:05:25.763Z,21.47
2023-03-07T00:06:58.831Z,20.20
2023-03-07T00:08:31.430Z,24.90
2023-03-07T00:10:04.665Z,22.60
2023-03-07T00:11:39.061Z,20.37
2023-03-07T00:13:12.141Z,20.90
2023-03-07T00:14:45.167Z,20.07
2023-03-07T00:16:20.162Z,23.17
2023-03-07T00:17:53.199Z,21.73
2023-03-07T00:19:26.268Z,23.27
2023-03-07T00:20:59.205Z,24.60
2023-03-07T00:22:32.235Z,21.97
2023-03-07T00:24:05.806Z,24.27
2023-03-07T00:25:37.885Z,23.43
2023-03-07T00:27:12.322Z,22.87
2023-03-07T00:28:47.511Z,24.37
2023-03-07T00:30:20.778Z,24.20
2023-03-07T00:31:52.859Z,24.10
2023-03-07T00:33:25.909Z,25.07
2023-03-07T00:35:00.585Z,23.77
2023-03-07T00:36:33.637Z,22.65
2023-03-07T00:38:06.697Z,21.83
2023-03-07T00:39:39.787Z,22.07
2023-03-07T00:41:14.854Z,23.23
2023-03-07T00:42:49.437Z,22.57
2023-03-07T00:44:25.323Z,22.23
2023-03-07T00:45:57.628Z,23.87
2023-03-07T00:47:30.764Z,21.17
2023-03-07T00:49:03.888Z,25.70
2023-03-07T00:50:36.946Z,24.17
2023-03-07T00:52:10.029Z,25.60
2023-03-07T00:53:43.925Z,22.20
2023-03-07T00:55:17.160Z,22.88
2023-03-07T00:56:50.257Z,24.43
2023-03-07T00:58:25.120Z,23.30
2023-03-07T00:59:58.170Z,26.07
2023-03-07T01:01:31.563Z,22.50
2023-03-07T01:03:04.177Z,23.57
2023-03-07T01:04:37.305Z,25.23
2023-03-07T01:06:12.447Z,22.57
2023-03-07T01:07:45.529Z,24.60
2023-03-07T01:09:18.640Z,23.17
2023-03-07T01:10:51.266Z,25.67
2023-03-07T01:12:24.355Z,24.30
2023-03-07T01:13:59.537Z,24.20
2023-03-07T01:15:32.698Z,24.97
2023-03-07T01:17:05.850Z,28.73
2023-03-07T01:18:39.184Z,27.60
2023-03-07T01:20:12.497Z,26.30
2023-03-07T01:21:45.687Z,26.10
2023-03-07T01:23:17.816Z,26.13
2023-03-07T01:24:51.030Z,25.53
2023-03-07T01:26:26.471Z,26.50
2023-03-07T01:27:59.485Z,26.88
2023-03-07T01:29:36.634Z,24.42
2023-03-07T01:31:09.925Z,27.85
2023-03-07T01:32:43.175Z,23.65
2023-03-07T01:34:16.366Z,25.08
2023-03-07T01:35:49.432Z,26.67
2023-03-07T01:37:23.163Z,26.08
2023-03-07T01:38:56.524Z,26.47
2023-03-07T01:40:29.573Z,28.33
2023-03-07T01:42:01.671Z,26.80
2023-03-07T01:43:35.873Z,27.13
2023-03-07T01:45:47.068Z,29.75
2023-03-07T01:47:21.762Z,27.90
2023-03-07T01:49:01.051Z,26.93
2023-03-07T01:50:36.282Z,26.33
2023-03-07T01:52:12.931Z,31.23
2023-03-07T01:53:50.113Z,29.47
2023-03-07T01:55:27.792Z,24.43
2023-03-07T01:57:05.819Z,26.63
2023-03-07T01:58:39.742Z,23.70
2023-03-07T02:00:19.741Z,24.30
2023-03-07T02:01:52.756Z,25.13
2023-03-07T02:03:34.671Z,25.67
2023-03-07T02:05:14.191Z,26.07
2023-03-07T02:06:47.272Z,28.05
2023-03-07T02:08:22.432Z,27.10
2023-03-07T02:09:56.960Z,25.90
2023-03-07T02:11:30.599Z,28.60
2023-03-07T02:13:03.484Z,29.03
2023-03-07T02:14:36.736Z,26.48
2023-03-07T02:16:09.133Z,30.65
2023-03-07T02:17:43.605Z,24.70
2023-03-07T02:19:43.546Z,28.60
2023-03-07T02:21:27.143Z,29.05
2023-03-07T02:23:00.339Z,28.25
2023-03-07T02:24:39.336Z,27.02
2023-03-07T02:26:17.827Z,30.15
2023-03-07T02:27:54.848Z,28.63
2023-03-07T02:29:28.392Z,27.85
2023-03-07T02:31:06.111Z,26.42
2023-03-07T02:32:41.544Z,28.60
2023-03-07T02:34:21.644Z,29.40
2023-03-07T02:35:59.705Z,27.20
2023-03-07T02:37:35.887Z,29.15
2023-03-07T02:39:09.065Z,29.55
2023-03-07T02:40:43.033Z,32.28
2023-03-07T02:42:19.663Z,29.63
2023-03-07T02:43:58.616Z,27.05
2023-03-07T02:45:31.739Z,29.02
2023-03-07T02:47:08.835Z,29.58
2023-03-07T02:48:42.188Z,30.45
2023-03-07T02:50:16.580Z,29.58
2023-03-07T02:51:57.505Z,27.25
2023-03-07T02:53:30.527Z,29.95
2023-03-07T02:55:03.604Z,29.25
2023-03-07T02:56:39.872Z,30.98
2023-03-07T02:58:12.944Z,28.15
2023-03-07T02:59:47.610Z,27.43
2023-03-07T03:01:20.750Z,28.90
2023-03-07T03:02:54.205Z,27.23
2023-03-07T03:04:27.507Z,28.20
2023-03-07T03:05:59.657Z,29.85
2023-03-07T03:07:32.743Z,30.03
2023-03-07T03:09:07.846Z,27.83
2023-03-07T03:10:40.310Z,27.10
2023-03-07T03:12:13.556Z,27.38
2023-03-07T03:13:45.651Z,29.38
2023-03-07T03:15:20.588Z,30.98
2023-03-07T03:16:52.768Z,28.15
2023-03-07T03:18:28.305Z,27.27
2023-03-07T03:20:01.374Z,28.27
2023-03-07T03:21:34.500Z,28.55
2023-03-07T03:23:07.623Z,29.38
2023-03-07T03:24:42.812Z,26.42
2023-03-07T03:26:19.524Z,26.92
2023-03-07T03:27:52.593Z,25.85
2023-03-07T03:29:26.529Z,26.73
2023-03-07T03:31:07.771Z,22.20
2023-03-07T03:32:43.674Z,22.58
2023-03-07T03:34:19.950Z,29.08
2023-03-07T03:35:52.456Z,27.85
2023-03-07T03:37:25.806Z,24.45
2023-03-07T03:39:00.415Z,26.15
2023-03-07T03:40:34.064Z,27.30
2023-03-07T03:42:07.417Z,24.20
2023-03-07T03:43:40.632Z,23.73
2023-03-07T03:45:15.068Z,26.02
2023-03-07T03:46:49.456Z,26.13
2023-03-07T03:48:24.887Z,23.42
2023-03-07T03:49:58.167Z,27.08
2023-03-07T03:51:31.662Z,27.92
2023-03-07T03:53:05.172Z,27.60
2023-03-07T03:54:38.277Z,25.92
2023-03-07T03:56:12.141Z,24.60
2023-03-07T03:57:45.227Z,26.85
2023-03-07T03:59:17.579Z,27.17
2023-03-07T04:00:50.649Z,27.67
2023-03-07T04:02:25.347Z,26.40
2023-03-07T04:03:59.372Z,28.88
2023-03-07T04:05:35.249Z,31.27
2023-03-07T04:07:08.301Z,28.98
2023-03-07T04:08:41.152Z,25.50
2023-03-07T04:10:14.236Z,29.05
2023-03-07T04:11:47.364Z,28.58
2023-03-07T04:13:19.536Z,26.33
2023-03-07T04:14:52.593Z,28.13
2023-03-07T04:16:25.846Z,29.15
2023-03-07T04:18:00.588Z,28.63
2023-03-07T04:19:33.690Z,28.25
2023-03-07T04:21:07.437Z,27.45
2023-03-07T04:22:40.654Z,27.45
2023-03-07T04:24:13.713Z,31.00
2023-03-07T04:25:49.306Z,31.02
2023-03-07T04:27:22.405Z,29.97
2023-03-07T04:28:55.642Z,28.83
2023-03-07T04:30:32.424Z,26.10
2023-03-07T04:32:05.864Z,29.73
2023-03-07T04:33:41.221Z,29.60
2023-03-07T04:35:14.357Z,27.85
2023-03-07T04:36:47.406Z,32.08
2023-03-07T04:38:19.516Z,31.98
2023-03-07T04:39:52.555Z,32.13
2023-03-07T04:41:27.239Z,29.55
2023-03-07T04:43:03.516Z,27.73
2023-03-07T04:44:36.591Z,26.73
2023-03-07T04:46:09.897Z,28.15
2023-03-07T04:47:43.036Z,26.38
2023-03-07T04:49:17.534Z,28.65
2023-03-07T04:50:51.169Z,28.52
2023-03-07T04:52:25.060Z,28.63
2023-03-07T04:54:00.136Z,30.98
2023-03-07T04:55:33.183Z,26.40
2023-03-07T04:57:06.510Z,30.95
2023-03-07T04:58:40.024Z,29.75
2023-03-07T05:00:14.527Z,31.33
2023-03-07T05:01:48.166Z,28.40
2023-03-07T05:03:21.357Z,29.98
2023-03-07T05:04:56.326Z,30.60
2023-03-07T05:06:28.954Z,30.75
2023-03-07T05:08:02.064Z,33.35
2023-03-07T05:09:35.567Z,28.52
2023-03-07T05:11:08.683Z,31.95
2023-03-07T05:12:42.135Z,28.65
2023-03-07T05:14:17.190Z,29.65
2023-03-07T05:15:52.730Z,32.17
2023-03-07T05:17:27.569Z,31.08
2023-03-07T05:19:02.935Z,33.83
2023-03-07T05:20:39.076Z,34.88
2023-03-07T05:22:12.353Z,34.20
2023-03-07T05:23:45.399Z,29.50
2023-03-07T05:25:20.138Z,32.17
2023-03-07T05:26:53.245Z,32.47
2023-03-07T05:28:26.421Z,31.83
2023-03-07T05:29:59.513Z,30.70
2023-03-07T05:31:32.583Z,29.33
2023-03-07T05:33:06.326Z,31.42
2023-03-07T05:34:39.577Z,33.47
2023-03-07T05:36:14.338Z,31.77
2023-03-07T05:37:46.838Z,32.67
2023-03-07T05:39:20.066Z,32.65
2023-03-07T05:40:53.215Z,34.63
2023-03-07T05:42:26.711Z,29.15
2023-03-07T05:43:59.768Z,35.28
2023-03-07T05:45:33.127Z,34.05
2023-03-07T05:47:07.226Z,35.55
2023-03-07T05:48:40.733Z,38.33
2023-03-07T05:50:14.275Z,35.63
2023-03-07T05:51:49.283Z,35.50
2023-03-07T05:53:22.418Z,35.13
2023-03-07T05:54:56.348Z,32.93
2023-03-07T05:56:29.438Z,25.23
2023-03-07T05:58:02.893Z,30.23
2023-03-07T05:59:35.103Z,28.63
2023-03-07T06:01:08.346Z,25.20
2023-03-07T06:02:41.719Z,20.10
2023-03-07T06:04:18.095Z,17.73
2023-03-07T06:05:51.832Z,17.83
2023-03-07T06:07:27.039Z,17.30
2023-03-07T06:09:00.176Z,19.07
2023-03-07T06:10:34.796Z,16.87
2023-03-07T06:12:10.576Z,16.10
2023-03-07T06:13:43.737Z,14.97
2023-03-07T06:15:16.974Z,16.67
2023-03-07T06:16:50.599Z,16.20
2023-03-07T06:18:25.669Z,15.20
2023-03-07T06:19:58.837Z,16.40
2023-03-07T06:21:31.919Z,14.80
2023-03-07T06:23:06.365Z,16.70
2023-03-07T06:24:39.807Z,14.60
2023-03-07T06:26:13.323Z,13.40
2023-03-07T06:27:48.406Z,14.83
2023-03-07T06:29:21.514Z,14.10
2023-03-07T06:30:55.176Z,14.03
2023-03-07T06:32:28.933Z,13.37
2023-03-07T06:34:03.355Z,14.57
2023-03-07T06:35:39.860Z,13.57
2023-03-07T06:37:13.567Z,14.67
2023-03-07T06:38:48.314Z,14.33
2023-03-07T06:40:21.599Z,14.90
2023-03-07T06:41:54.799Z,15.00
2023-03-07T06:43:27.961Z,14.43
2023-03-07T06:45:01.414Z,16.17
2023-03-07T06:46:35.398Z,14.17
2023-03-07T06:48:13.768Z,12.17
2023-03-07T06:49:47.750Z,12.65
2023-03-07T06:51:20.979Z,14.77
2023-03-07T06:52:55.153Z,12.77
2023-03-07T06:54:29.691Z,14.23
2023-03-07T06:56:03.026Z,13.00
2023-03-07T06:57:36.353Z,13.43
2023-03-07T06:59:10.446Z,12.80
2023-03-07T07:00:43.739Z,12.30
2023-03-07T07:02:16.995Z,15.97
2023-03-07T07:03:50.463Z,12.67
2023-03-07T07:05:24.230Z,13.37
2023-03-07T07:06:57.537Z,13.77
2023-03-07T07:08:31.029Z,13.53
2023-03-07T07:10:11.617Z,13.50
2023-03-07T07:11:44.835Z,13.00
2023-03-07T07:13:19.112Z,13.33
2023-03-07T07:14:52.327Z,13.90
2023-03-07T07:16:25.498Z,12.70
2023-03-07T07:17:59.002Z,13.37
2023-03-07T07:19:32.305Z,12.00
2023-03-07T07:21:06.205Z,14.00
2023-03-07T07:22:39.756Z,12.27
2023-03-07T07:24:13.640Z,12.67
2023-03-07T07:25:48.467Z,12.33
2023-03-07T07:27:21.557Z,13.03
2023-03-07T07:28:55.071Z,11.10
2023-03-07T07:30:28.351Z,12.87
2023-03-07T07:32:01.766Z,12.33
2023-03-07T07:33:35.195Z,11.23
2023-03-07T07:35:09.825Z,11.47
2023-03-07T07:36:43.027Z,13.67
2023-03-07T07:38:16.171Z,11.33
2023-03-07T07:39:50.385Z,10.93
2023-03-07T07:41:24.850Z,11.67
2023-03-07T07:43:00.579Z,12.33
2023-03-07T07:44:43.249Z,12.37
2023-03-07T07:46:18.258Z,12.70
2023-03-07T07:47:52.609Z,10.97
2023-03-07T07:49:28.239Z,11.40
2023-03-07T07:51:02.697Z,10.90
2023-03-07T07:52:36.244Z,11.13
2023-03-07T07:54:10.392Z,11.80
2023-03-07T07:55:43.604Z,12.40
2023-03-07T07:57:18.106Z,11.43
2023-03-07T07:58:52.022Z,12.37
2023-03-07T08:00:25.594Z,11.73
2023-03-07T08:01:58.671Z,12.47
2023-03-07T08:03:31.774Z,11.57
2023-03-07T08:05:08.432Z,10.90
2023-03-07T08:06:44.222Z,10.37
2023-03-07T08:08:18.041Z,9.90
2023-03-07T08:09:51.182Z,12.90
2023-03-07T08:11:25.270Z,11.17
2023-03-07T08:12:59.733Z,10.53
2023-03-07T08:14:34.499Z,9.20
2023-03-07T08:16:12.026Z,12.03
2023-03-07T08:17:45.200Z,9.97
2023-03-07T08:19:18.304Z,11.27
2023-03-07T08:20:51.499Z,10.33
2023-03-07T08:22:24.620Z,9.97
2023-03-07T08:23:58.393Z,9.17
2023-03-07T08:25:31.510Z,8.83
2023-03-07T08:27:05.208Z,9.57
2023-03-07T08:28:40.415Z,8.73
2023-03-07T08:30:14.363Z,9.50
2023-03-07T08:31:51.226Z,9.83
2023-03-07T08:33:24.296Z,9.93
2023-03-07T08:34:57.423Z,8.87
2023-03-07T08:36:30.655Z,9.17
2023-03-07T08:38:03.794Z,8.47
2023-03-07T08:39:36.862Z,9.07
2023-03-07T08:41:10.551Z,8.17
2023-03-07T08:42:43.806Z,8.73
2023-03-07T08:44:18.294Z,9.50
2023-03-07T08:45:52.818Z,7.90
2023-03-07T08:47:26.100Z,7.50
2023-03-07T08:48:59.336Z,7.77
2023-03-07T08:50:32.433Z,9.37
2023-03-07T08:52:05.951Z,9.30
2023-03-07T08:53:39.273Z,8.43
2023-03-07T08:55:12.421Z,8.40
2023-03-07T08:56:45.492Z,7.00
2023-03-07T08:58:18.798Z,7.43
2023-03-07T08:59:53.315Z,6.30
2023-03-07T09:01:26.469Z,6.47
2023-03-07T09:03:01.540Z,6.67
2023-03-07T09:04:34.740Z,5.60
2023-03-07T09:06:08.337Z,6.07
2023-03-07T09:07:42.382Z,6.90
2023-03-07T09:09:15.618Z,6.20
2023-03-07T09:10:49.127Z,7.30
2023-03-07T09:12:22.352Z,6.20
2023-03-07T09:13:55.584Z,5.60
2023-03-07T09:15:30.040Z,5.83
2023-03-07T09:17:04.621Z,5.33
2023-03-07T09:18:38.033Z,5.80
2023-03-07T09:20:13.616Z,6.33
2023-03-07T09:21:46.676Z,5.57
2023-03-07T09:23:19.790Z,5.73
2023-03-07T09:24:52.916Z,5.83
2023-03-07T09:26:26.043Z,6.23
2023-03-07T09:27:59.136Z,5.80
2023-03-07T09:29:32.368Z,6.90
2023-03-07T09:31:10.284Z,5.60
2023-03-07T09:32:43.807Z,5.87
2023-03-07T09:34:17.420Z,5.80
2023-03-07T09:35:50.875Z,5.97
2023-03-07T09:37:24.423Z,5.33
2023-03-07T09:38:58.245Z,5.60
2023-03-07T09:40:31.472Z,5.77
2023-03-07T09:42:17.950Z,5.73
2023-03-07T09:43:59.382Z,5.40
2023-03-07T09:46:05.916Z,5.70
2023-03-07T09:48:04.499Z,6.70
2023-03-07T09:49:45.602Z,5.90
2023-03-07T09:51:22.390Z,6.60
2023-03-07T09:53:02.269Z,6.47
2023-03-07T09:54:42.120Z,4.87
2023-03-07T09:56:21.282Z,5.77
2023-03-07T09:57:57.050Z,6.00
2023-03-07T09:59:35.641Z,6.87
2023-03-07T10:01:13.748Z,5.70
2023-03-07T10:02:54.252Z,5.73
2023-03-07T10:04:33.369Z,5.13
2023-03-07T10:06:14.470Z,5.40
2023-03-07T10:07:47.812Z,7.57
2023-03-07T10:09:23.031Z,5.70
2023-03-07T10:11:05.790Z,5.13
2023-03-07T10:12:56.682Z,5.70
2023-03-07T10:14:43.261Z,6.13
2023-03-07T10:16:26.285Z,6.00
2023-03-07T10:18:14.021Z,6.23
2023-03-07T10:19:51.222Z,6.43
2023-03-07T10:21:34.367Z,5.60
2023-03-07T10:23:29.033Z,7.50
2023-03-07T10:25:18.928Z,6.90
2023-03-07T10:26:58.624Z,6.77
2023-03-07T10:28:34.208Z,6.67
2023-03-07T10:30:15.734Z,7.93
2023-03-07T10:31:52.088Z,6.57
2023-03-07T10:33:29.075Z,6.97
2023-03-07T10:35:14.509Z,7.03
2023-03-07T10:37:00.130Z,6.23
2023-03-07T10:38:45.084Z,7.23
2023-03-07T10:40:31.232Z,6.73
2023-03-07T10:42:04.573Z,7.30
2023-03-07T10:43:37.969Z,6.33
2023-03-07T10:45:14.152Z,6.33
2023-03-07T10:46:55.730Z,5.57
2023-03-07T10:48:32.184Z,6.67
2023-03-07T10:50:24.492Z,6.80
2023-03-07T10:52:02.761Z,6.37
2023-03-07T10:53:39.059Z,7.10
2023-03-07T10:55:32.171Z,6.40
2023-03-07T10:57:08.896Z,5.97
2023-03-07T10:59:03.552Z,5.50
2023-03-07T11:00:36.728Z,7.13
2023-03-07T11:02:32.402Z,6.57
2023-03-07T11:04:07.806Z,6.63
2023-03-07T11:05:48.509Z,6.87
2023-03-07T11:07:30.930Z,6.37
2023-03-07T11:09:23.308Z,6.63
2023-03-07T11:10:56.691Z,6.37
2023-03-07T11:12:31.972Z,7.77
2023-03-07T11:14:11.800Z,6.90
2023-03-07T11:15:46.539Z,5.00
2023-03-07T11:17:22.653Z,6.13
2023-03-07T11:18:55.884Z,6.83
2023-03-07T11:20:47.396Z,6.13
2023-03-07T11:22:27.974Z,5.80
2023-03-07T11:24:03.355Z,7.27
2023-03-07T11:25:37.673Z,6.70
2023-03-07T11:27:23.395Z,6.10
2023-03-07T11:29:07.200Z,6.73
2023-03-07T11:30:47.682Z,6.17
2023-03-07T11:32:23.756Z,6.03
2023-03-07T11:34:06.487Z,5.97
2023-03-07T11:35:57.678Z,6.63
2023-03-07T11:37:34.570Z,6.10
2023-03-07T11:39:17.662Z,6.97
2023-03-07T11:40:56.538Z,5.67
2023-03-07T11:42:34.743Z,5.90
2023-03-07T11:44:24.806Z,6.27
2023-03-07T11:46:06.244Z,6.37
2023-03-07T11:47:46.982Z,6.13
2023-03-07T11:49:34.596Z,6.10
2023-03-07T11:51:24.620Z,6.23
2023-03-07T11:53:35.295Z,7.33
2023-03-07T11:55:22.491Z,7.93
2023-03-07T11:57:01.143Z,5.90
2023-03-07T11:59:25.311Z,6.40
2023-03-07T12:01:11.899Z,6.07
2023-03-07T12:03:09.003Z,6.17
2023-03-07T12:04:58.335Z,6.07
2023-03-07T12:06:39.821Z,6.17
2023-03-07T12:08:36.103Z,7.17
2023-03-07T12:10:20.993Z,5.67
2023-03-07T12:12:21.190Z,5.83
2023-03-07T12:14:01.823Z,6.57
2023-03-07T12:15:39.071Z,6.07
2023-03-07T12:17:24.312Z,6.80
2023-03-07T12:19:12.302Z,6.47
2023-03-07T12:20:59.819Z,5.73
2023-03-07T12:22:44.812Z,6.90
2023-03-07T12:24:23.254Z,5.40
2023-03-07T12:25:59.434Z,5.50
2023-03-07T12:27:36.176Z,8.37
2023-03-07T12:29:17.100Z,7.00
2023-03-07T12:31:00.136Z,6.67
2023-03-07T12:32:35.603Z,7.13
2023-03-07T12:34:17.243Z,6.83
2023-03-07T12:35:56.122Z,6.90
2023-03-07T12:37:34.396Z,6.47
2023-03-07T12:39:19.820Z,7.27
2023-03-07T12:40:57.494Z,5.93
2023-03-07T12:42:36.328Z,6.33
2023-03-07T12:44:17.503Z,5.97
2023-03-07T12:45:54.941Z,6.57
2023-03-07T12:47:34.971Z,5.90
2023-03-07T12:49:17.015Z,6.67
2023-03-07T12:50:58.280Z,5.50
2023-03-07T12:52:41.743Z,6.23
2023-03-07T12:54:21.873Z,6.67
2023-03-07T12:55:58.989Z,6.43
2023-03-07T12:57:37.180Z,6.03
2023-03-07T12:59:13.960Z,6.23
2023-03-07T13:00:52.659Z,6.23
2023-03-07T13:02:29.334Z,7.83
2023-03-07T13:04:08.297Z,7.00
2023-03-07T13:05:44.913Z,6.70
2023-03-07T13:07:21.394Z,6.40
2023-03-07T13:08:57.499Z,7.53
2023-03-07T13:10:32.532Z,5.23
2023-03-07T13:12:24.333Z,6.43
2023-03-07T13:13:59.490Z,5.83
2023-03-07T13:16:03.242Z,8.93
2023-03-07T13:18:02.070Z,6.60
2023-03-07T13:19:53.974Z,5.70
2023-03-07T13:21:33.578Z,6.47
2023-03-07T13:23:31.471Z,8.03
2023-03-07T13:25:38.742Z,6.30
2023-03-07T13:27:17.732Z,6.90
2023-03-07T13:28:52.331Z,5.87
2023-03-07T13:30:26.567Z,6.53
2023-03-07T13:31:59.687Z,5.50
2023-03-07T13:33:32.776Z,5.73
2023-03-07T13:35:09.928Z,5.90
2023-03-07T13:36:42.133Z,6.70
2023-03-07T13:38:35.522Z,5.97
2023-03-07T13:40:28.840Z,6.60
2023-03-07T13:42:02.214Z,6.97
2023-03-07T13:44:02.028Z,7.37
2023-03-07T13:45:52.985Z,6.93
2023-03-07T13:47:42.946Z,6.17
2023-03-07T13:49:45.372Z,6.27
2023-03-07T13:51:17.451Z,6.43
2023-03-07T13:52:50.570Z,6.77
2023-03-07T13:54:22.683Z,5.50
2023-03-07T13:56:02.076Z,5.03
2023-03-07T13:57:41.753Z,6.43
2023-03-07T13:59:24.615Z,6.10
2023-03-07T14:01:01.384Z,5.93
2023-03-07T14:02:35.008Z,6.80
2023-03-07T14:04:13.488Z,5.33
2023-03-07T14:05:48.695Z,6.07
2023-03-07T14:07:25.723Z,6.03
2023-03-07T14:09:02.602Z,6.23
2023-03-07T14:10:45.927Z,6.73
2023-03-07T14:12:31.397Z,6.87
2023-03-07T14:14:29.456Z,6.87
2023-03-07T14:16:15.209Z,7.07
2023-03-07T14:18:01.252Z,6.63
2023-03-07T14:19:55.392Z,6.03
2023-03-07T14:21:43.578Z,6.23
2023-03-07T14:23:31.005Z,7.13
2023-03-07T14:25:15.933Z,6.07
2023-03-07T14:26:52.013Z,6.87
2023-03-07T14:28:27.959Z,5.47
2023-03-07T14:30:02.391Z,6.73
2023-03-07T14:31:40.088Z,5.67
2023-03-07T14:33:18.945Z,7.30
2023-03-07T14:34:53.263Z,6.70
2023-03-07T14:36:28.501Z,5.40
2023-03-07T14:38:01.957Z,5.77
2023-03-07T14:39:44.950Z,7.57
2023-03-07T14:41:36.554Z,6.13
2023-03-07T14:43:26.467Z,5.83
2023-03-07T14:45:24.879Z,6.80
2023-03-07T14:47:11.475Z,6.10
2023-03-07T14:49:00.391Z,8.60
2023-03-07T14:50:34.108Z,6.73
2023-03-07T14:52:21.414Z,5.03
2023-03-07T14:54:08.976Z,5.70
2023-03-07T14:55:45.725Z,6.77
2023-03-07T14:57:25.146Z,5.27
2023-03-07T14:59:01.101Z,5.00
2023-03-07T15:00:36.048Z,5.67
2023-03-07T15:02:19.238Z,6.20
2023-03-07T15:03:54.470Z,7.43
2023-03-07T15:05:29.175Z,5.70
2023-03-07T15:07:04.724Z,5.57
2023-03-07T15:08:38.525Z,7.27
2023-03-07T15:10:17.611Z,5.57
2023-03-07T15:11:55.138Z,6.23
2023-03-07T15:13:34.210Z,6.73
2023-03-07T15:15:08.338Z,5.40
2023-03-07T15:16:48.658Z,4.93
2023-03-07T15:18:24.530Z,5.20
2023-03-07T15:20:00.513Z,5.53
2023-03-07T15:21:39.427Z,5.13
2023-03-07T15:23:21.078Z,4.07
2023-03-07T15:24:54.680Z,4.47
2023-03-07T15:26:29.465Z,5.13
2023-03-07T15:28:04.365Z,5.23
2023-03-07T15:29:39.228Z,5.80
2023-03-07T15:31:14.038Z,4.03
2023-03-07T15:32:48.595Z,4.50
2023-03-07T15:34:27.062Z,5.10
2023-03-07T15:36:20.748Z,5.50
2023-03-07T15:37:56.702Z,5.17
2023-03-07T15:39:34.540Z,5.93
2023-03-07T15:41:25.815Z,6.10
2023-03-07T15:43:02.238Z,6.03
2023-03-07T15:44:38.006Z,5.87
2023-03-07T15:46:19.001Z,5.57
2023-03-07T15:47:53.482Z,5.00
2023-03-07T15:49:31.655Z,5.20
2023-03-07T15:51:07.416Z,5.53
2023-03-07T15:52:41.750Z,5.73
2023-03-07T15:54:23.498Z,7.03
2023-03-07T15:55:58.651Z,5.07
2023-03-07T15:57:35.135Z,5.33
2023-03-07T15:59:26.000Z,5.53
2023-03-07T16:01:07.887Z,4.50
2023-03-07T16:02:46.569Z,5.47
2023-03-07T16:04:38.686Z,6.97
2023-03-07T16:06:32.554Z,6.20
2023-03-07T16:08:12.334Z,5.07
2023-03-07T16:09:45.474Z,5.73
2023-03-07T16:11:18.575Z,6.43
2023-03-07T16:12:51.830Z,6.57
2023-03-07T16:14:26.979Z,6.13
2023-03-07T16:16:06.748Z,6.90
2023-03-07T16:17:40.407Z,5.57
2023-03-07T16:19:13.447Z,8.93
2023-03-07T16:20:48.215Z,5.57
2023-03-07T16:22:21.887Z,6.13
2023-03-07T16:23:55.003Z,4.80
2023-03-07T16:25:30.676Z,5.73
2023-03-07T16:27:03.785Z,5.50
2023-03-07T16:28:36.875Z,5.23
2023-03-07T16:30:14.785Z,5.83
2023-03-07T16:31:48.496Z,6.07
2023-03-07T16:33:21.622Z,7.00
2023-03-07T16:34:55.035Z,5.87
2023-03-07T16:36:29.439Z,5.97
2023-03-07T16:38:02.548Z,7.40
2023-03-07T16:39:35.918Z,6.37
2023-03-07T16:41:16.904Z,6.33
2023-03-07T16:42:51.298Z,7.73
2023-03-07T16:44:24.684Z,6.40
2023-03-07T16:45:58.668Z,6.10
2023-03-07T16:47:32.205Z,5.93
2023-03-07T16:49:05.298Z,5.57
2023-03-07T16:50:38.705Z,6.00
2023-03-07T16:52:14.809Z,6.70
2023-03-07T16:53:49.274Z,8.07
2023-03-07T16:55:23.274Z,5.23
2023-03-07T16:56:58.284Z,5.57
2023-03-07T16:58:34.939Z,6.23
2023-03-07T17:00:10.107Z,6.13
2023-03-07T17:01:45.443Z,7.33
2023-03-07T17:03:19.181Z,6.53
2023-03-07T17:04:52.260Z,6.07
2023-03-07T17:06:37.115Z,7.87
2023-03-07T17:08:12.786Z,7.00
2023-03-07T17:09:46.267Z,6.23
2023-03-07T17:11:21.263Z,7.87
2023-03-07T17:12:56.002Z,6.50
2023-03-07T17:14:29.406Z,6.43
2023-03-07T17:16:02.565Z,6.10
2023-03-07T17:17:38.254Z,6.50
2023-03-07T17:19:23.171Z,5.70
2023-03-07T17:20:56.276Z,6.57
2023-03-07T17:22:29.407Z,7.60
2023-03-07T17:24:03.837Z,7.80
2023-03-07T17:25:37.090Z,6.30
2023-03-07T17:27:10.600Z,9.33
2023-03-07T17:28:43.918Z,6.70
2023-03-07T17:30:21.243Z,8.50
2023-03-07T17:31:54.342Z,8.00
2023-03-07T17:33:27.446Z,8.20
2023-03-07T17:35:00.522Z,8.10
2023-03-07T17:36:33.621Z,10.17
2023-03-07T17:38:06.676Z,8.10
2023-03-07T17:39:42.388Z,8.77
2023-03-07T17:41:15.463Z,10.27
2023-03-07T17:42:51.091Z,10.60
2023-03-07T17:44:25.091Z,9.20
2023-03-07T17:45:58.167Z,9.53
2023-03-07T17:47:31.267Z,7.27
2023-03-07T17:49:04.511Z,8.87
2023-03-07T17:50:37.861Z,6.87
2023-03-07T17:52:11.773Z,6.37
2023-03-07T17:53:44.830Z,7.03
2023-03-07T17:55:20.058Z,6.53
2023-03-07T17:56:53.227Z,6.60
2023-03-07T17:58:26.330Z,6.80
2023-03-07T17:59:59.393Z,9.17
2023-03-07T18:01:33.719Z,6.93
2023-03-07T18:03:07.315Z,8.07
2023-03-07T18:04:40.520Z,7.73
2023-03-07T18:06:13.566Z,7.80
2023-03-07T18:07:47.069Z,7.53
2023-03-07T18:09:22.976Z,6.90
2023-03-07T18:11:03.947Z,10.17
2023-03-07T18:12:39.101Z,10.57
2023-03-07T18:14:12.693Z,11.83
2023-03-07T18:15:46.812Z,11.37
2023-03-07T18:17:21.948Z,9.03
2023-03-07T18:18:59.999Z,10.13
2023-03-07T18:20:33.717Z,10.17
2023-03-07T18:22:06.850Z,9.03
2023-03-07T18:23:40.611Z,9.10
2023-03-07T18:25:15.699Z,8.63
2023-03-07T18:26:51.538Z,8.37
2023-03-07T18:28:25.030Z,9.00
2023-03-07T18:29:58.122Z,8.17
2023-03-07T18:31:31.310Z,8.23
2023-03-07T18:33:04.546Z,8.57
2023-03-07T18:34:37.624Z,7.57
2023-03-07T18:36:14.435Z,7.57
2023-03-07T18:37:47.558Z,5.53
2023-03-07T18:39:21.130Z,5.80
2023-03-07T18:41:04.986Z,6.27
2023-03-07T18:42:40.201Z,5.23
2023-03-07T18:44:13.234Z,5.87
2023-03-07T18:45:48.062Z,5.07
2023-03-07T18:47:21.173Z,6.30
2023-03-07T18:48:54.853Z,5.97
2023-03-07T18:50:27.913Z,6.90
2023-03-07T18:52:01.016Z,6.17
2023-03-07T18:53:34.822Z,6.37
2023-03-07T18:55:08.426Z,6.13
2023-03-07T18:56:42.590Z,6.03
2023-03-07T18:58:17.058Z,6.53
2023-03-07T18:59:50.999Z,5.60
2023-03-07T19:01:26.213Z,5.77
2023-03-07T19:02:59.291Z,6.30
2023-03-07T19:04:32.470Z,5.73
2023-03-07T19:06:05.680Z,5.27
2023-03-07T19:07:38.904Z,4.83
2023-03-07T19:09:16.197Z,5.37
2023-03-07T19:10:49.259Z,7.33
2023-03-07T19:12:22.323Z,7.43
2023-03-07T19:13:57.131Z,5.93
2023-03-07T19:15:30.283Z,7.10
2023-03-07T19:17:03.370Z,6.70
2023-03-07T19:18:37.393Z,5.50
2023-03-07T19:20:11.777Z,5.40
2023-03-07T19:21:44.897Z,5.63
2023-03-07T19:23:17.957Z,5.20
2023-03-07T19:24:51.013Z,6.47
2023-03-07T19:26:24.407Z,5.23
2023-03-07T19:27:57.469Z,6.00
2023-03-07T19:29:31.926Z,6.80
2023-03-07T19:31:09.233Z,6.27
2023-03-07T19:32:42.697Z,6.20
2023-03-07T19:34:15.832Z,6.40
2023-03-07T19:35:49.027Z,5.50
2023-03-07T19:37:22.232Z,6.40
2023-03-07T19:38:57.618Z,7.00
2023-03-07T19:40:30.691Z,6.23
2023-03-07T19:42:04.393Z,7.17
2023-03-07T19:43:37.774Z,5.90
2023-03-07T19:45:12.804Z,6.77
2023-03-07T19:46:47.211Z,7.23
2023-03-07T19:48:20.626Z,6.67
2023-03-07T19:49:53.687Z,6.57
2023-03-07T19:51:28.026Z,8.07
2023-03-07T19:53:02.932Z,6.47
2023-03-07T19:54:36.032Z,7.37
2023-03-07T19:56:13.782Z,7.00
2023-03-07T19:57:47.543Z,6.10
2023-03-07T19:59:22.046Z,8.90
2023-03-07T20:00:59.091Z,6.50
2023-03-07T20:02:33.885Z,6.90
2023-03-07T20:04:07.780Z,7.63
2023-03-07T20:05:42.444Z,7.23
2023-03-07T20:07:15.673Z,7.23
2023-03-07T20:08:48.989Z,6.53
2023-03-07T20:10:22.085Z,8.33
2023-03-07T20:11:56.110Z,7.33
2023-03-07T20:13:29.180Z,6.70
2023-03-07T20:15:02.246Z,7.77
2023-03-07T20:16:36.893Z,8.00
2023-03-07T20:18:11.215Z,7.13
2023-03-07T20:19:44.560Z,6.17
2023-03-07T20:21:17.931Z,6.57
2023-03-07T20:22:55.012Z,7.97
2023-03-07T20:24:29.846Z,7.17
2023-03-07T20:26:04.842Z,8.13
2023-03-07T20:27:38.051Z,8.33
2023-03-07T20:29:12.289Z,8.10
2023-03-07T20:30:45.407Z,8.10
2023-03-07T20:32:20.328Z,7.53
2023-03-07T20:33:53.496Z,7.13
2023-03-07T20:35:26.575Z,7.37
2023-03-07T20:36:59.671Z,7.67
2023-03-07T20:38:33.086Z,7.53
2023-03-07T20:40:07.285Z,8.97
2023-03-07T20:41:40.399Z,8.33
2023-03-07T20:43:13.463Z,7.83
2023-03-07T20:44:46.530Z,8.43
2023-03-07T20:46:22.363Z,7.10
2023-03-07T20:47:56.809Z,7.43
2023-03-07T20:49:29.885Z,7.07
2023-03-07T20:51:07.290Z,7.20
2023-03-07T20:52:40.355Z,6.93
2023-03-07T20:54:15.501Z,6.90
2023-03-07T20:55:48.576Z,6.90
2023-03-07T20:57:21.654Z,7.40
2023-03-07T20:58:56.082Z,8.63
2023-03-07T21:00:29.189Z,6.93
2023-03-07T21:02:02.289Z,7.13
2023-03-07T21:03:35.802Z,8.13
2023-03-07T21:05:09.680Z,7.37
2023-03-07T21:06:44.456Z,7.27